sensor_id;sensor_type;location;lat;lon;timestamp;P1;durP1;ratioP1;P2;durP2;ratioP2
46983;SDS011;34732;52.112;9.366;2023-02-24T08:41:29;12.05;;;2.50;;
46983;SDS011;34732;52.112;9.366;2023-02-24T08:45:04;10.77;;;1.92;;
46983;SDS011;34732;52.112;9.366;2023-02-24T08:48:27;17.33;;;2.40;;
46983;SDS011;34732;52.112;9.366;2023-02-24T08:51:56;9.07;;;2.45;;
46983;SDS011;34732;52.112;9.366;2023-02-24T08:55:26;16.35;;;2.00;;
46983;SDS011;34732;52.112;9.366;2023-02-24T08:58:56;24.52;;;2.53;;
46983;SDS011;34732;52.112;9.366;2023-02-24T09:02:27;28.98;;;2.58;;
46983;SDS011;34732;52.112;9.366;2023-02-24T09:05:51;38.58;;;2.78;;
46983;SDS011;34732;52.112;9.366;2023-02-24T09:09:24;39.97;;;3.92;;
46983;SDS011;34732;52.112;9.366;2023-02-24T09:12:50;28.67;;;3.42;;
46983;SDS011;34732;52.112;9.366;2023-02-24T09:16:20;30.00;;;3.65;;
46983;SDS011;34732;52.112;9.366;2023-02-24T09:19:48;25.77;;;3.65;;
46983;SDS011;34732;52.112;9.366;2023-02-24T09:23:15;22.92;;;2.67;;
46983;SDS011;34732;52.112;9.366;2023-02-24T09:26:49;15.18;;;3.15;;
46983;SDS011;34732;52.112;9.366;2023-02-24T09:30:21;23.58;;;3.20;;
46983;SDS011;34732;52.112;9.366;2023-02-24T09:33:58;15.98;;;2.80;;
46983;SDS011;34732;52.112;9.366;2023-02-24T09:37:28;16.52;;;2.08;;
46983;SDS011;34732;52.112;9.366;2023-02-24T09:40:51;14.57;;;2.10;;
46983;SDS011;34732;52.112;9.366;2023-02-24T09:44:42;15.82;;;2.22;;
46983;SDS011;34732;52.112;9.366;2023-02-24T09:48:14;16.23;;;2.22;;
46983;SDS011;34732;52.112;9.366;2023-02-24T09:51:45;14.50;;;1.83;;
46983;SDS011;34732;52.112;9.366;2023-02-24T10:02:42;11.18;;;2.30;;
46983;SDS011;34732;52.112;9.366;2023-02-24T10:06:26;18.75;;;2.38;;
46983;SDS011;34732;52.112;9.366;2023-02-24T10:09:56;11.23;;;2.05;;
46983;SDS011;34732;52.112;9.366;2023-02-24T10:13:41;14.75;;;1.85;;
46983;SDS011;34732;52.112;9.366;2023-02-24T10:17:09;10.85;;;1.55;;
46983;SDS011;34732;52.112;9.366;2023-02-24T10:24:41;10.55;;;2.15;;
46983;SDS011;34732;52.112;9.366;2023-02-24T10:32:19;6.38;;;1.73;;
46983;SDS011;34732;52.112;9.366;2023-02-24T10:39:55;5.75;;;1.38;;
46983;SDS011;34732;52.112;9.366;2023-02-24T10:43:21;10.35;;;1.77;;
46983;SDS011;34732;52.112;9.366;2023-02-24T10:47:09;7.85;;;1.40;;
46983;SDS011;34732;52.112;9.366;2023-02-24T10:50:43;8.75;;;1.45;;
46983;SDS011;34732;52.112;9.366;2023-02-24T10:57:52;6.43;;;1.70;;
46983;SDS011;34732;52.112;9.366;2023-02-24T11:01:26;7.07;;;1.70;;
46983;SDS011;34732;52.112;9.366;2023-02-24T11:05:11;12.82;;;1.92;;
46983;SDS011;34732;52.112;9.366;2023-02-24T11:09:00;6.90;;;1.33;;
46983;SDS011;34732;52.112;9.366;2023-02-24T11:12:45;6.28;;;1.20;;
46983;SDS011;34732;52.112;9.366;2023-02-24T11:16:28;5.95;;;1.08;;
46983;SDS011;34732;52.112;9.366;2023-02-24T11:20:39;6.80;;;0.95;;
46983;SDS011;34732;52.112;9.366;2023-02-24T11:24:09;8.55;;;1.67;;
46983;SDS011;34732;52.112;9.366;2023-02-24T11:27:41;6.38;;;1.60;;
46983;SDS011;34732;52.112;9.366;2023-02-24T11:35:08;6.43;;;1.25;;
46983;SDS011;34732;52.112;9.366;2023-02-24T11:42:06;4.88;;;1.10;;
46983;SDS011;34732;52.112;9.366;2023-02-24T11:45:41;4.60;;;1.30;;
46983;SDS011;34732;52.112;9.366;2023-02-24T11:53:01;4.87;;;0.80;;
46983;SDS011;34732;52.112;9.366;2023-02-24T12:00:18;5.43;;;0.90;;
46983;SDS011;34732;52.112;9.366;2023-02-24T12:10:49;5.07;;;1.20;;
46983;SDS011;34732;52.112;9.366;2023-02-24T12:14:50;6.32;;;1.42;;
46983;SDS011;34732;52.112;9.366;2023-02-24T12:18:17;4.00;;;1.20;;
46983;SDS011;34732;52.112;9.366;2023-02-24T12:25:11;4.85;;;1.35;;
46983;SDS011;34732;52.112;9.366;2023-02-24T12:35:41;2.95;;;1.02;;
46983;SDS011;34732;52.112;9.366;2023-02-24T12:39:31;3.05;;;1.05;;
46983;SDS011;34732;52.112;9.366;2023-02-24T12:46:43;4.20;;;1.20;;
46983;SDS011;34732;52.112;9.366;2023-02-24T13:12:08;5.90;;;1.52;;
46983;SDS011;34732;52.112;9.366;2023-02-24T13:15:49;3.50;;;1.50;;
46983;SDS011;34732;52.112;9.366;2023-02-24T13:19:26;8.20;;;1.70;;
46983;SDS011;34732;52.112;9.366;2023-02-24T13:26:20;8.03;;;1.90;;
46983;SDS011;34732;52.112;9.366;2023-02-24T13:29:50;5.22;;;1.38;;
46983;SDS011;34732;52.112;9.366;2023-02-24T13:33:21;7.93;;;2.20;;
46983;SDS011;34732;52.112;9.366;2023-02-24T13:36:45;6.65;;;1.40;;
46983;SDS011;34732;52.112;9.366;2023-02-24T13:40:20;7.90;;;1.95;;
46983;SDS011;34732;52.112;9.366;2023-02-24T13:43:53;9.05;;;1.70;;
46983;SDS011;34732;52.112;9.366;2023-02-24T13:54:56;5.53;;;1.83;;
46983;SDS011;34732;52.112;9.366;2023-02-24T14:02:43;6.97;;;1.93;;
46983;SDS011;34732;52.112;9.366;2023-02-24T14:05:49;6.75;;;1.63;;
46983;SDS011;34732;52.112;9.366;2023-02-24T14:09:12;5.75;;;2.10;;
46983;SDS011;34732;52.112;9.366;2023-02-24T14:12:38;6.68;;;1.85;;
46983;SDS011;34732;52.112;9.366;2023-02-24T14:16:05;5.55;;;1.48;;
46983;SDS011;34732;52.112;9.366;2023-02-24T14:19:27;4.10;;;2.13;;
46983;SDS011;34732;52.112;9.366;2023-02-24T14:22:54;21.02;;;3.72;;
46983;SDS011;34732;52.112;9.366;2023-02-24T14:26:18;10.65;;;3.72;;
46983;SDS011;34732;52.112;9.366;2023-02-24T14:29:45;8.35;;;2.70;;
46983;SDS011;34732;52.112;9.366;2023-02-24T14:33:14;6.72;;;2.40;;
46983;SDS011;34732;52.112;9.366;2023-02-24T14:37:05;9.23;;;2.50;;
46983;SDS011;34732;52.112;9.366;2023-02-24T14:40:27;5.72;;;2.28;;
46983;SDS011;34732;52.112;9.366;2023-02-24T14:43:49;6.82;;;2.45;;
46983;SDS011;34732;52.112;9.366;2023-02-24T14:47:15;8.38;;;2.90;;
46983;SDS011;34732;52.112;9.366;2023-02-24T14:50:46;7.75;;;1.98;;
46983;SDS011;34732;52.112;9.366;2023-02-24T14:54:14;9.98;;;2.88;;
46983;SDS011;34732;52.112;9.366;2023-02-24T14:57:46;6.65;;;2.42;;
46983;SDS011;34732;52.112;9.366;2023-02-24T15:02:18;7.88;;;2.65;;
46983;SDS011;34732;52.112;9.366;2023-02-24T15:05:50;7.82;;;2.20;;
46983;SDS011;34732;52.112;9.366;2023-02-24T15:09:26;8.02;;;2.53;;
46983;SDS011;34732;52.112;9.366;2023-02-24T15:12:56;6.95;;;2.28;;
46983;SDS011;34732;52.112;9.366;2023-02-24T15:16:41;7.63;;;2.10;;
46983;SDS011;34732;52.112;9.366;2023-02-24T15:27:49;6.63;;;2.17;;
46983;SDS011;34732;52.112;9.366;2023-02-24T15:31:18;4.53;;;2.17;;
46983;SDS011;34732;52.112;9.366;2023-02-24T15:34:43;5.40;;;2.17;;
46983;SDS011;34732;52.112;9.366;2023-02-24T15:38:12;5.72;;;1.90;;
46983;SDS011;34732;52.112;9.366;2023-02-24T15:42:04;7.43;;;2.55;;
46983;SDS011;34732;52.112;9.366;2023-02-24T15:45:48;2.72;;;1.50;;
46983;SDS011;34732;52.112;9.366;2023-02-24T15:49:12;7.32;;;2.03;;
46983;SDS011;34732;52.112;9.366;2023-02-24T15:52:38;6.93;;;1.60;;
46983;SDS011;34732;52.112;9.366;2023-02-24T15:56:00;3.67;;;1.80;;
46983;SDS011;34732;52.112;9.366;2023-02-24T15:59:23;9.20;;;2.05;;
46983;SDS011;34732;52.112;9.366;2023-02-24T16:02:45;3.35;;;1.23;;
46983;SDS011;34732;52.112;9.366;2023-02-24T16:06:13;5.22;;;1.63;;
46983;SDS011;34732;52.112;9.366;2023-02-24T16:09:41;4.72;;;1.58;;
46983;SDS011;34732;52.112;9.366;2023-02-24T16:13:05;6.22;;;1.88;;
46983;SDS011;34732;52.112;9.366;2023-02-24T16:16:39;3.00;;;1.63;;
46983;SDS011;34732;52.112;9.366;2023-02-24T16:20:13;6.93;;;1.80;;
46983;SDS011;34732;52.112;9.366;2023-02-24T16:23:52;4.70;;;1.95;;
46983;SDS011;34732;52.112;9.366;2023-02-24T16:27:21;5.18;;;2.10;;
46983;SDS011;34732;52.112;9.366;2023-02-24T16:30:46;5.43;;;1.42;;
46983;SDS011;34732;52.112;9.366;2023-02-24T16:34:14;5.20;;;2.05;;
46983;SDS011;34732;52.112;9.366;2023-02-24T16:37:36;4.68;;;1.35;;
46983;SDS011;34732;52.112;9.366;2023-02-24T16:41:02;4.43;;;1.90;;
46983;SDS011;34732;52.112;9.366;2023-02-24T16:44:26;5.75;;;1.88;;
46983;SDS011;34732;52.112;9.366;2023-02-24T16:47:57;3.47;;;1.70;;
46983;SDS011;34732;52.112;9.366;2023-02-24T16:51:22;5.75;;;1.60;;
46983;SDS011;34732;52.112;9.366;2023-02-24T16:54:47;5.15;;;1.75;;
46983;SDS011;34732;52.112;9.366;2023-02-24T16:58:09;3.55;;;1.52;;
46983;SDS011;34732;52.112;9.366;2023-02-24T17:01:30;2.17;;;1.35;;
46983;SDS011;34732;52.112;9.366;2023-02-24T17:04:57;5.97;;;1.95;;
46983;SDS011;34732;52.112;9.366;2023-02-24T17:08:23;3.00;;;1.50;;
46983;SDS011;34732;52.112;9.366;2023-02-24T17:11:47;4.75;;;1.48;;
46983;SDS011;34732;52.112;9.366;2023-02-24T17:15:14;2.90;;;1.50;;
46983;SDS011;34732;52.112;9.366;2023-02-24T17:18:54;3.28;;;1.50;;
46983;SDS011;34732;52.112;9.366;2023-02-24T17:22:19;3.20;;;1.23;;
46983;SDS011;34732;52.112;9.366;2023-02-24T17:25:48;2.47;;;1.45;;
46983;SDS011;34732;52.112;9.366;2023-02-24T17:29:14;4.28;;;1.58;;
46983;SDS011;34732;52.112;9.366;2023-02-24T17:32:38;2.20;;;1.23;;
46983;SDS011;34732;52.112;9.366;2023-02-24T17:35:59;4.20;;;1.23;;
46983;SDS011;34732;52.112;9.366;2023-02-24T17:39:20;2.53;;;1.42;;
46983;SDS011;34732;52.112;9.366;2023-02-24T17:42:44;3.35;;;1.48;;
46983;SDS011;34732;52.112;9.366;2023-02-24T17:46:18;3.38;;;1.30;;
46983;SDS011;34732;52.112;9.366;2023-02-24T17:49:44;4.72;;;1.35;;
46983;SDS011;34732;52.112;9.366;2023-02-24T17:53:06;3.63;;;1.63;;
46983;SDS011;34732;52.112;9.366;2023-02-24T17:56:45;2.70;;;1.35;;
46983;SDS011;34732;52.112;9.366;2023-02-24T18:00:08;1.60;;;1.05;;
46983;SDS011;34732;52.112;9.366;2023-02-24T18:03:33;2.33;;;1.40;;
46983;SDS011;34732;52.112;9.366;2023-02-24T18:07:00;2.53;;;1.27;;
46983;SDS011;34732;52.112;9.366;2023-02-24T18:10:24;2.53;;;1.15;;
46983;SDS011;34732;52.112;9.366;2023-02-24T18:13:47;2.28;;;1.40;;
46983;SDS011;34732;52.112;9.366;2023-02-24T18:17:21;2.22;;;1.17;;
46983;SDS011;34732;52.112;9.366;2023-02-24T18:20:44;2.80;;;1.67;;
46983;SDS011;34732;52.112;9.366;2023-02-24T18:24:17;2.00;;;1.20;;
46983;SDS011;34732;52.112;9.366;2023-02-24T18:27:43;2.67;;;1.48;;
46983;SDS011;34732;52.112;9.366;2023-02-24T18:31:16;2.92;;;1.20;;
46983;SDS011;34732;52.112;9.366;2023-02-24T18:34:38;2.22;;;1.35;;
46983;SDS011;34732;52.112;9.366;2023-02-24T18:38:10;2.15;;;1.40;;
46983;SDS011;34732;52.112;9.366;2023-02-24T18:41:33;3.13;;;1.42;;
46983;SDS011;34732;52.112;9.366;2023-02-24T18:44:57;1.92;;;1.10;;
46983;SDS011;34732;52.112;9.366;2023-02-24T18:48:26;2.47;;;1.75;;
46983;SDS011;34732;52.112;9.366;2023-02-24T18:51:50;2.22;;;1.27;;
46983;SDS011;34732;52.112;9.366;2023-02-24T18:55:27;2.03;;;1.40;;
46983;SDS011;34732;52.112;9.366;2023-02-24T18:58:48;2.63;;;1.38;;
46983;SDS011;34732;52.112;9.366;2023-02-24T19:02:29;2.07;;;1.20;;
46983;SDS011;34732;52.112;9.366;2023-02-24T19:05:52;1.95;;;1.50;;
46983;SDS011;34732;52.112;9.366;2023-02-24T19:09:16;2.58;;;1.15;;
46983;SDS011;34732;52.112;9.366;2023-02-24T19:12:47;2.08;;;1.10;;
46983;SDS011;34732;52.112;9.366;2023-02-24T19:16:12;2.10;;;1.13;;
46983;SDS011;34732;52.112;9.366;2023-02-24T19:19:37;1.58;;;1.10;;
46983;SDS011;34732;52.112;9.366;2023-02-24T19:23:09;1.63;;;1.35;;
46983;SDS011;34732;52.112;9.366;2023-02-24T19:26:35;2.70;;;1.63;;
46983;SDS011;34732;52.112;9.366;2023-02-24T19:30:12;1.90;;;1.38;;
46983;SDS011;34732;52.112;9.366;2023-02-24T19:33:45;2.72;;;1.48;;
46983;SDS011;34732;52.112;9.366;2023-02-24T19:37:09;1.23;;;0.98;;
46983;SDS011;34732;52.112;9.366;2023-02-24T19:40:35;1.35;;;1.20;;
46983;SDS011;34732;52.112;9.366;2023-02-24T19:43:59;1.73;;;1.08;;
46983;SDS011;34732;52.112;9.366;2023-02-24T19:47:26;2.17;;;1.20;;
46983;SDS011;34732;52.112;9.366;2023-02-24T19:50:57;1.92;;;1.10;;
46983;SDS011;34732;52.112;9.366;2023-02-24T19:54:18;1.17;;;1.08;;
46983;SDS011;34732;52.112;9.366;2023-02-24T19:57:47;1.42;;;0.90;;
46983;SDS011;34732;52.112;9.366;2023-02-24T20:01:17;2.92;;;1.33;;
46983;SDS011;34732;52.112;9.366;2023-02-24T20:04:38;1.80;;;1.40;;
46983;SDS011;34732;52.112;9.366;2023-02-24T20:08:02;2.38;;;1.40;;
46983;SDS011;34732;52.112;9.366;2023-02-24T20:11:24;1.60;;;0.85;;
46983;SDS011;34732;52.112;9.366;2023-02-24T20:14:54;1.30;;;1.10;;
46983;SDS011;34732;52.112;9.366;2023-02-24T20:18:20;2.97;;;1.20;;
46983;SDS011;34732;52.112;9.366;2023-02-24T20:21:46;2.15;;;1.30;;
46983;SDS011;34732;52.112;9.366;2023-02-24T20:25:18;1.48;;;1.10;;
46983;SDS011;34732;52.112;9.366;2023-02-24T20:28:47;1.45;;;1.00;;
46983;SDS011;34732;52.112;9.366;2023-02-24T20:32:11;1.45;;;1.15;;
46983;SDS011;34732;52.112;9.366;2023-02-24T20:35:46;1.17;;;0.98;;
46983;SDS011;34732;52.112;9.366;2023-02-24T20:39:09;1.35;;;1.23;;
46983;SDS011;34732;52.112;9.366;2023-02-24T20:42:39;2.35;;;1.45;;
46983;SDS011;34732;52.112;9.366;2023-02-24T20:46:09;1.20;;;0.90;;
46983;SDS011;34732;52.112;9.366;2023-02-24T20:49:49;1.50;;;0.80;;
46983;SDS011;34732;52.112;9.366;2023-02-24T20:53:15;1.20;;;0.90;;
46983;SDS011;34732;52.112;9.366;2023-02-24T20:56:39;1.63;;;1.00;;
46983;SDS011;34732;52.112;9.366;2023-02-24T21:00:05;1.02;;;0.90;;
46983;SDS011;34732;52.112;9.366;2023-02-24T21:03:40;2.20;;;1.10;;
46983;SDS011;34732;52.112;9.366;2023-02-24T21:07:03;2.85;;;1.50;;
46983;SDS011;34732;52.112;9.366;2023-02-24T21:10:32;11.93;;;1.58;;
46983;SDS011;34732;52.112;9.366;2023-02-24T21:13:55;11.35;;;1.95;;
46983;SDS011;34732;52.112;9.366;2023-02-24T21:17:22;18.17;;;2.15;;
46983;SDS011;34732;52.112;9.366;2023-02-24T21:20:51;6.22;;;1.60;;
46983;SDS011;34732;52.112;9.366;2023-02-24T21:24:17;8.90;;;1.80;;
46983;SDS011;34732;52.112;9.366;2023-02-24T21:27:43;9.52;;;2.60;;
46983;SDS011;34732;52.112;9.366;2023-02-24T21:31:13;7.15;;;2.17;;
46983;SDS011;34732;52.112;9.366;2023-02-24T21:34:38;11.70;;;2.78;;
